Centennial, WY (82055)

11:30 AM MST on December 03, 2016 (GMT -0700)
West of Centennial WY | | Change Station

Elev 8274 ft 41.30 °N, 106.15 °W | Updated 12 seconds ago

Partly Cloudy
Partly Cloudy
20.5 °F
Feels Like 7 °F
N
13.9
Wind Variable Wind from West
Gusts 17.4 mph

Today
High -- | Low -- °F
--% Chance of Precip.
Yesterday
High -- | Low -- °F
Precip. -- in
Pressure 30.11 in
Visibility 10.0 miles
Clouds Few 10000 ft
Windchill 7 °F
Dew Point 2 °F
Humidity 43%
Rainfall 2.08 in
Snow Depth Not available.
7:13 AM 4:35 PM
Waxing Crescent, 16% visible
METAR KLAR 031753Z AUTO 25021G29KT 10SM FEW100 M02/M14 A2996 RMK AO2 PK WND 25032/1739 SLP196 T10221139 11022 21111 50007
Pressure 30.11 in
Visibility 10.0 miles
Clouds Few 10000 ft
Windchill 7 °F
Dew Point 2 °F
Humidity 43%
Rainfall 2.08 in
Snow Depth Not available.
7:13 AM 4:35 PM
Waxing Crescent, 16% visible
METAR KLAR 031753Z AUTO 25021G29KT 10SM FEW100 M02/M14 A2996 RMK AO2 PK WND 25032/1739 SLP196 T10221139 11022 21111 50007

10-Day Weather Forecast

Almanac

Astronomy

Dec. 03, 2016 Rise Set
Actual Time
Civil Twilight
Nautical Twilight
Astronomical Twilight
Moon
Length of Visible Light
Length of Day
Tomorrow will be .
, % of the Moon is Illuminated

Today's Extremes

State Highs State Lows

Community

WunderPhotos

Upload Photos

1,955,457 photos uploaded!

WunderBlog® & News

Nearby

Air Quality

  Air Quality AQ Index Pollutant
Not available.

Snow Depth

Station Depth Elevation

Earthquake Activity

City Distance Mag. Time & Date
Minimum magnitude displayed is 2.5.

Coastal Water Temperatures

Place Temperature

Stations

Nearby Weather Stations

Station Location Temp. Windchill Dew Point Humidity Wind Precip. Elev Updated Type
                   

Watches & Warnings

There are currently no watches in effect.